Time;durP1;ratioP1;P1;durP2;ratioP2;P2;SDS_P1;SDS_P2;PMS_P1;PMS_P2;Temp;Humidity;BMP_temperature;BMP_pressure;BME280_temperature;BME280_humidity;BME280_pressure;Samples;Min_cycle;Max_cycle;Signal;HPM_P1;HPM_P2
2023/11/03 00:01:55;;;;;;;11.83;9.87;;;10.60;99.90;;;;;;5031310;28;20932;-64
2023/11/03 00:04:21;;;;;;;11.57;9.70;;;10.60;99.90;;;;;;5036008;28;20445;-64
2023/11/03 00:06:47;;;;;;;10.67;9.57;;;10.60;99.90;;;;;;5051957;28;20486;-64
2023/11/03 00:09:17;;;;;;;13.43;10.17;;;10.60;99.90;;;;;;5055989;28;20206;-64
2023/11/03 00:11:48;;;;;;;13.13;9.90;;;10.60;99.90;;;;;;5012836;28;20464;-64
2023/11/03 00:14:15;;;;;;;12.90;9.33;;;10.60;99.90;;;;;;5055764;28;20465;-64
2023/11/03 00:16:41;;;;;;;10.07;9.07;;;10.50;99.90;;;;;;5051773;28;20536;-62
2023/11/03 00:19:07;;;;;;;11.70;10.17;;;10.50;99.90;;;;;;5046739;28;20520;-64
2023/11/03 00:21:34;;;;;;;13.30;11.13;;;10.50;99.90;;;;;;5048402;28;20185;-64
2023/11/03 00:24:00;;;;;;;14.10;10.70;;;10.50;99.90;;;;;;5053776;28;20420;-64
2023/11/03 00:26:26;;;;;;;11.37;10.17;;;10.50;99.90;;;;;;5049979;28;20529;-63
2023/11/03 00:28:51;;;;;;;11.30;10.03;;;10.50;99.90;;;;;;5057859;28;20532;-64
2023/11/03 00:31:17;;;;;;;12.10;10.23;;;10.50;99.90;;;;;;5053902;28;20228;-63
2023/11/03 00:33:44;;;;;;;10.80;8.80;;;10.50;99.90;;;;;;5050550;28;20499;-64
2023/11/03 00:36:14;;;;;;;12.07;10.30;;;10.50;99.90;;;;;;5048897;28;20249;-63
2023/11/03 00:38:46;;;;;;;12.90;10.50;;;10.50;99.90;;;;;;5049513;28;20907;-62
2023/11/03 00:41:14;;;;;;;11.13;10.00;;;10.40;99.90;;;;;;5032092;28;20435;-64
2023/11/03 00:43:44;;;;;;;11.20;10.10;;;10.50;99.90;;;;;;5048569;28;20502;-63
2023/11/03 00:46:09;;;;;;;12.70;9.80;;;10.50;99.90;;;;;;5049487;28;20467;-63
2023/11/03 00:48:36;;;;;;;11.77;10.33;;;10.50;99.90;;;;;;5053250;28;20443;-64
2023/11/03 00:51:03;;;;;;;10.87;9.73;;;10.40;99.90;;;;;;5055259;28;20594;-64
2023/11/03 00:53:29;;;;;;;12.03;10.73;;;10.40;99.90;;;;;;5051137;28;20457;-64
2023/11/03 00:55:55;;;;;;;14.00;9.80;;;10.40;99.90;;;;;;5030557;28;20512;-64
2023/11/03 00:58:21;;;;;;;11.13;10.00;;;10.40;99.90;;;;;;5047184;28;20907;-65
2023/11/03 01:00:48;;;;;;;12.00;9.67;;;10.40;99.90;;;;;;5051458;28;20410;-65
2023/11/03 01:03:14;;;;;;;13.57;11.07;;;10.30;99.90;;;;;;5057094;28;20286;-64
2023/11/03 01:05:40;;;;;;;11.03;9.80;;;10.30;99.90;;;;;;5050738;28;20529;-65
2023/11/03 01:08:05;;;;;;;11.53;9.40;;;10.30;99.90;;;;;;5046709;28;20186;-65
2023/11/03 01:10:32;;;;;;;11.23;10.20;;;10.30;99.90;;;;;;5043786;28;20805;-65
2023/11/03 01:12:59;;;;;;;9.87;8.87;;;10.30;99.90;;;;;;5043196;28;20578;-64
2023/11/03 01:15:24;;;;;;;14.47;9.40;;;10.30;99.90;;;;;;5050237;28;20450;-64
2023/11/03 01:17:50;;;;;;;11.70;10.50;;;10.20;99.90;;;;;;5053360;28;20850;-64
2023/11/03 01:20:19;;;;;;;12.20;10.70;;;10.20;99.90;;;;;;5051054;28;20174;-64
2023/11/03 01:22:48;;;;;;;10.70;9.60;;;10.20;99.90;;;;;;5066058;28;20170;-63
2023/11/03 01:25:15;;;;;;;11.93;10.60;;;10.20;99.90;;;;;;5053078;28;20409;-64
2023/11/03 01:27:44;;;;;;;10.53;9.43;;;10.20;99.90;;;;;;5050789;28;21000;-64
2023/11/03 01:30:12;;;;;;;10.67;9.57;;;10.20;99.90;;;;;;5052855;28;20966;-64
2023/11/03 01:32:38;;;;;;;10.33;9.27;;;10.20;99.90;;;;;;5050178;28;20408;-64
2023/11/03 01:35:06;;;;;;;10.37;8.63;;;10.20;99.90;;;;;;5050309;28;20409;-64
2023/11/03 01:37:33;;;;;;;10.40;9.00;;;10.20;99.90;;;;;;5050504;28;20669;-65
2023/11/03 01:39:58;;;;;;;13.00;10.23;;;10.20;99.90;;;;;;5044248;28;20410;-63
2023/11/03 01:42:25;;;;;;;12.37;10.60;;;10.20;99.90;;;;;;5049360;28;20483;-64
2023/11/03 01:44:51;;;;;;;11.07;9.57;;;10.20;99.90;;;;;;5032871;28;20178;-63
2023/11/03 01:47:17;;;;;;;10.30;9.07;;;10.20;99.90;;;;;;5045905;28;20821;-65
2023/11/03 01:49:44;;;;;;;11.23;10.10;;;10.10;99.90;;;;;;5055016;28;20409;-64
2023/11/03 01:52:12;;;;;;;12.43;9.27;;;10.10;99.90;;;;;;5061867;28;20414;-64
2023/11/03 01:54:38;;;;;;;13.80;9.70;;;10.10;99.90;;;;;;5059510;28;20452;-64
2023/11/03 01:57:04;;;;;;;9.90;8.83;;;10.10;99.90;;;;;;5054648;28;21013;-64
2023/11/03 01:59:30;;;;;;;9.83;8.60;;;10.10;99.90;;;;;;5055170;28;20608;-64
2023/11/03 02:01:58;;;;;;;11.47;9.70;;;10.10;99.90;;;;;;5055104;28;20452;-64
2023/11/03 02:04:24;;;;;;;10.20;9.20;;;10.10;99.90;;;;;;5052991;28;20210;-63
2023/11/03 02:06:50;;;;;;;12.13;10.93;;;10.10;99.90;;;;;;5054952;28;20461;-64
2023/11/03 02:09:16;;;;;;;13.37;9.77;;;10.10;99.90;;;;;;5054622;28;20456;-63
2023/11/03 02:11:43;;;;;;;11.80;9.00;;;10.00;99.90;;;;;;5054545;28;20179;-64
2023/11/03 02:14:09;;;;;;;10.40;9.33;;;10.00;99.90;;;;;;5054401;28;20948;-64
2023/11/03 02:16:35;;;;;;;9.50;8.60;;;10.00;99.90;;;;;;5054758;28;20435;-63
2023/11/03 02:19:03;;;;;;;9.40;8.40;;;10.00;99.90;;;;;;5054489;28;20413;-64
2023/11/03 02:21:34;;;;;;;9.33;8.23;;;10.00;99.90;;;;;;5052643;28;20253;-65
2023/11/03 02:23:59;;;;;;;9.97;8.50;;;10.00;99.90;;;;;;5054219;28;20474;-64
2023/11/03 02:26:25;;;;;;;10.27;8.57;;;9.90;99.90;;;;;;5052940;28;20919;-64
2023/11/03 02:28:51;;;;;;;11.37;9.17;;;9.90;99.90;;;;;;5054220;28;20178;-64
2023/11/03 02:31:16;;;;;;;11.27;9.90;;;9.90;99.90;;;;;;5054381;28;20602;-64
2023/11/03 02:33:42;;;;;;;11.43;8.90;;;9.90;99.90;;;;;;5053625;28;20288;-64
2023/11/03 02:36:08;;;;;;;9.43;8.53;;;9.90;99.90;;;;;;5052487;28;20252;-63
2023/11/03 02:38:34;;;;;;;9.63;8.63;;;9.80;99.90;;;;;;5063136;28;20166;-64
2023/11/03 02:41:00;;;;;;;8.77;7.93;;;9.80;99.90;;;;;;5056535;28;20427;-62
2023/11/03 02:43:25;;;;;;;12.03;9.03;;;9.80;99.90;;;;;;5054043;28;20183;-64
2023/11/03 02:45:51;;;;;;;13.73;9.67;;;9.80;99.90;;;;;;5055050;28;20191;-64
2023/11/03 02:48:17;;;;;;;10.43;8.50;;;9.80;99.90;;;;;;5050302;28;20182;-63
2023/11/03 02:50:42;;;;;;;12.33;8.03;;;9.80;99.90;;;;;;5073818;28;20178;-64
2023/11/03 02:53:08;;;;;;;9.93;7.83;;;9.80;99.90;;;;;;5055317;28;20448;-62
2023/11/03 02:55:35;;;;;;;10.93;8.07;;;9.80;99.90;;;;;;5051722;28;20225;-63
2023/11/03 02:58:02;;;;;;;9.40;8.40;;;9.80;99.90;;;;;;5052487;28;20589;-63
2023/11/03 03:00:28;;;;;;;11.00;9.13;;;9.80;99.90;;;;;;5053113;28;20837;-63
2023/11/03 03:02:54;;;;;;;8.30;7.20;;;9.80;99.90;;;;;;5053910;28;20732;-64
2023/11/03 03:05:19;;;;;;;8.70;7.83;;;9.80;99.90;;;;;;5053945;28;20516;-64
2023/11/03 03:07:46;;;;;;;9.60;7.93;;;9.80;99.90;;;;;;5053619;28;20163;-64
2023/11/03 03:10:12;;;;;;;9.50;8.50;;;9.80;99.90;;;;;;5053286;28;20232;-64
2023/11/03 03:12:37;;;;;;;8.70;7.37;;;9.80;99.90;;;;;;5053200;28;20405;-63
2023/11/03 03:15:04;;;;;;;9.30;8.40;;;9.70;99.90;;;;;;5047378;28;20425;-64
2023/11/03 03:17:30;;;;;;;7.57;6.60;;;9.70;99.90;;;;;;5052698;28;20213;-64
2023/11/03 03:19:56;;;;;;;11.80;7.60;;;9.70;99.90;;;;;;5053323;28;20468;-64
2023/11/03 03:22:21;;;;;;;9.63;7.00;;;9.70;99.90;;;;;;5052942;28;20452;-64
2023/11/03 03:24:47;;;;;;;8.67;7.03;;;9.70;99.90;;;;;;5052994;28;20625;-64
2023/11/03 03:27:13;;;;;;;11.80;7.63;;;9.70;99.90;;;;;;5052834;28;20213;-63
2023/11/03 03:29:38;;;;;;;8.00;6.97;;;9.70;99.90;;;;;;5051343;28;20178;-64
2023/11/03 03:32:04;;;;;;;7.73;6.63;;;9.70;99.90;;;;;;5052517;28;20175;-64
2023/11/03 03:34:30;;;;;;;9.30;8.17;;;9.70;99.90;;;;;;5052917;28;20202;-64
2023/11/03 03:36:56;;;;;;;8.97;7.33;;;9.60;99.90;;;;;;5052430;28;20434;-63
2023/11/03 03:39:21;;;;;;;9.23;6.83;;;9.70;99.90;;;;;;5052809;28;20409;-64
2023/11/03 03:41:54;;;;;;;12.30;7.80;;;9.60;99.90;;;;;;5052558;28;20171;-64
2023/11/03 03:44:19;;;;;;;7.53;6.50;;;9.60;99.90;;;;;;5052851;28;20174;-64
2023/11/03 03:46:45;;;;;;;10.63;9.33;;;9.70;99.90;;;;;;5045036;28;20823;-63
2023/11/03 03:49:11;;;;;;;7.13;6.43;;;9.60;99.90;;;;;;5051557;28;20217;-63
2023/11/03 03:51:37;;;;;;;8.27;6.70;;;9.60;99.90;;;;;;5052323;28;20680;-63
2023/11/03 03:54:02;;;;;;;8.80;6.70;;;9.60;99.90;;;;;;5052560;28;20464;-64
2023/11/03 03:56:28;;;;;;;8.10;7.20;;;9.60;99.90;;;;;;5052176;28;20854;-64
2023/11/03 03:58:54;;;;;;;8.93;6.63;;;9.60;99.90;;;;;;5052486;28;20167;-64
2023/11/03 04:01:22;;;;;;;7.33;6.63;;;9.60;99.90;;;;;;5049560;28;20178;-64
2023/11/03 04:03:48;;;;;;;8.50;5.80;;;9.50;99.90;;;;;;5051686;28;20426;-64
2023/11/03 04:06:14;;;;;;;6.00;5.40;;;9.60;99.90;;;;;;5051384;28;20559;-64
2023/11/03 04:08:39;;;;;;;7.90;6.00;;;9.50;99.90;;;;;;5051331;28;20178;-63
2023/11/03 04:11:05;;;;;;;7.10;6.40;;;9.50;99.90;;;;;;5049975;28;20239;-64
2023/11/03 04:13:31;;;;;;;11.20;6.03;;;9.50;99.90;;;;;;5051620;28;20194;-64
2023/11/03 04:15:57;;;;;;;8.50;6.23;;;9.50;99.90;;;;;;5050749;28;20583;-64
2023/11/03 04:18:23;;;;;;;7.17;5.60;;;9.50;99.90;;;;;;5049792;28;20516;-64
2023/11/03 04:20:48;;;;;;;6.10;5.50;;;9.50;99.90;;;;;;5050903;28;20179;-64
2023/11/03 04:23:14;;;;;;;6.83;5.97;;;9.50;99.90;;;;;;5050541;28;20309;-64
2023/11/03 04:25:40;;;;;;;7.73;5.93;;;9.50;99.90;;;;;;5051177;28;20622;-66
2023/11/03 04:28:06;;;;;;;6.77;5.90;;;9.50;99.90;;;;;;5050977;28;20432;-63
2023/11/03 04:30:36;;;;;;;6.10;5.23;;;9.50;99.90;;;;;;5050835;28;20208;-63
2023/11/03 04:33:04;;;;;;;6.30;5.60;;;9.40;99.90;;;;;;5050724;28;20453;-64
2023/11/03 04:35:30;;;;;;;8.17;5.53;;;9.40;99.90;;;;;;5045747;28;20483;-63
2023/11/03 04:37:55;;;;;;;8.10;6.17;;;9.40;99.90;;;;;;5050866;28;20413;-64
2023/11/03 04:40:21;;;;;;;6.23;4.83;;;9.40;99.90;;;;;;5051448;28;20589;-64
2023/11/03 04:42:47;;;;;;;5.60;4.83;;;9.40;99.90;;;;;;5050007;28;20182;-64
2023/11/03 04:45:15;;;;;;;8.17;5.60;;;9.30;99.90;;;;;;5050928;28;20175;-64
2023/11/03 04:47:41;;;;;;;5.40;4.90;;;9.30;99.90;;;;;;5051003;28;20457;-63
2023/11/03 04:50:07;;;;;;;5.90;4.63;;;9.30;99.90;;;;;;5050295;28;20460;-63
2023/11/03 04:52:34;;;;;;;5.80;5.20;;;9.30;99.90;;;;;;5047654;28;20612;-63
2023/11/03 04:55:00;;;;;;;6.27;5.40;;;9.30;99.90;;;;;;5050276;28;20876;-64
2023/11/03 04:57:25;;;;;;;9.67;5.70;;;9.30;99.90;;;;;;5050457;28;20433;-63
2023/11/03 04:59:51;;;;;;;4.60;3.97;;;9.30;99.90;;;;;;5050609;28;20536;-63
2023/11/03 05:02:17;;;;;;;5.93;4.70;;;9.20;99.90;;;;;;5049728;28;20508;-63
2023/11/03 05:04:43;;;;;;;6.60;4.77;;;9.30;99.90;;;;;;5010166;28;1145104;-63
2023/11/03 05:07:09;;;;;;;5.97;5.40;;;9.30;99.90;;;;;;5050054;28;20199;-64
2023/11/03 05:09:37;;;;;;;5.17;4.63;;;9.30;99.90;;;;;;5048938;28;20528;-63
2023/11/03 05:12:04;;;;;;;5.07;4.30;;;9.20;99.90;;;;;;5050857;28;20178;-63
2023/11/03 05:14:30;;;;;;;4.90;4.40;;;9.20;99.90;;;;;;5047176;28;20460;-64
2023/11/03 05:16:56;;;;;;;5.40;4.90;;;9.30;99.90;;;;;;5059376;28;20436;-64
2023/11/03 05:19:22;;;;;;;8.40;4.77;;;9.20;99.90;;;;;;5070923;28;20518;-63
2023/11/03 05:21:48;;;;;;;6.27;4.47;;;9.30;99.90;;;;;;5071137;28;20181;-63
2023/11/03 05:24:14;;;;;;;6.30;3.47;;;9.20;99.90;;;;;;5059835;28;20429;-63
2023/11/03 05:26:41;;;;;;;6.43;5.00;;;9.30;99.90;;;;;;5050618;28;20920;-64
2023/11/03 05:29:07;;;;;;;8.93;5.97;;;9.30;99.90;;;;;;5051090;28;20189;-63
2023/11/03 05:31:33;;;;;;;8.40;4.57;;;9.30;99.90;;;;;;5051047;28;20883;-63
2023/11/03 05:34:02;;;;;;;7.17;4.80;;;9.20;99.90;;;;;;5050904;28;20502;-64
2023/11/03 05:36:28;;;;;;;5.20;3.67;;;9.20;99.90;;;;;;5051153;28;20192;-63
2023/11/03 05:38:54;;;;;;;7.70;4.70;;;9.20;99.90;;;;;;5051016;28;20410;-63
2023/11/03 05:41:20;;;;;;;6.03;3.43;;;9.30;99.90;;;;;;5044356;28;20438;-63
2023/11/03 05:43:45;;;;;;;5.20;3.57;;;9.20;99.90;;;;;;5050712;28;20183;-63
2023/11/03 05:46:11;;;;;;;3.10;2.53;;;9.20;99.90;;;;;;5050532;28;20836;-63
2023/11/03 05:48:37;;;;;;;3.50;2.63;;;9.20;99.90;;;;;;5050755;28;20194;-63
2023/11/03 05:51:03;;;;;;;3.50;3.20;;;9.20;99.90;;;;;;5050792;28;20239;-63
2023/11/03 05:53:30;;;;;;;4.87;3.33;;;9.20;99.90;;;;;;5050233;28;20285;-63
2023/11/03 05:55:55;;;;;;;4.80;3.40;;;9.20;99.90;;;;;;5050254;28;20450;-63
2023/11/03 05:58:21;;;;;;;4.67;3.10;;;9.20;99.90;;;;;;5048814;28;20440;-64
2023/11/03 06:00:47;;;;;;;6.17;3.10;;;9.20;99.90;;;;;;5049981;28;20181;-64
2023/11/03 06:03:13;;;;;;;4.77;3.17;;;9.10;99.90;;;;;;5050064;28;20187;-64
2023/11/03 06:05:39;;;;;;;4.30;2.90;;;9.10;99.90;;;;;;5050598;28;20580;-63
2023/11/03 06:08:04;;;;;;;6.13;3.40;;;9.00;99.90;;;;;;5050426;28;20475;-63
2023/11/03 06:10:30;;;;;;;4.90;4.10;;;9.00;99.90;;;;;;5050057;28;20197;-63
2023/11/03 06:12:56;;;;;;;5.43;3.07;;;9.00;99.90;;;;;;5050482;28;20177;-63
2023/11/03 06:15:22;;;;;;;6.47;3.90;;;9.00;99.90;;;;;;5047854;28;20664;-64
2023/11/03 06:17:47;;;;;;;4.20;3.40;;;8.90;99.90;;;;;;5050712;28;20254;-64
2023/11/03 06:20:13;;;;;;;6.63;4.43;;;9.00;99.90;;;;;;5047438;28;20720;-64
2023/11/03 06:22:39;;;;;;;4.80;3.27;;;9.00;99.90;;;;;;5045331;28;20177;-64
2023/11/03 06:25:05;;;;;;;7.80;3.40;;;9.00;99.90;;;;;;5057554;28;20177;-63
2023/11/03 06:27:30;;;;;;;3.67;2.93;;;9.00;99.90;;;;;;5070728;28;20210;-64
2023/11/03 06:29:56;;;;;;;3.60;2.93;;;9.00;99.90;;;;;;5052045;28;20414;-64
2023/11/03 06:32:21;;;;;;;7.73;3.50;;;9.00;99.90;;;;;;5048495;28;20210;-64
2023/11/03 06:34:47;;;;;;;6.60;2.60;;;9.00;99.90;;;;;;5053340;28;20237;-64
2023/11/03 06:37:13;;;;;;;6.90;3.43;;;9.00;99.90;;;;;;5051832;28;20222;-64
2023/11/03 06:39:38;;;;;;;5.97;3.03;;;9.00;99.90;;;;;;5073852;28;20169;-64
2023/11/03 06:42:06;;;;;;;5.77;2.07;;;9.10;99.90;;;;;;5073526;28;20649;-64
2023/11/03 06:44:32;;;;;;;5.80;2.50;;;9.00;99.90;;;;;;5058003;28;20189;-65
2023/11/03 06:46:59;;;;;;;3.93;2.27;;;9.00;99.90;;;;;;5049759;28;20439;-66
2023/11/03 06:49:25;;;;;;;8.50;2.60;;;8.90;99.90;;;;;;5052976;28;20995;-67
2023/11/03 06:51:51;;;;;;;5.47;2.00;;;8.90;99.90;;;;;;5050421;28;20533;-64
2023/11/03 06:54:18;;;;;;;7.53;3.00;;;8.90;99.90;;;;;;5052499;28;20556;-69
2023/11/03 06:56:43;;;;;;;4.73;2.97;;;9.00;99.90;;;;;;5046886;28;20282;-64
2023/11/03 06:59:09;;;;;;;2.60;1.90;;;9.00;99.90;;;;;;5062045;28;20497;-64
2023/11/03 07:01:35;;;;;;;6.00;2.10;;;9.00;99.90;;;;;;5063753;28;20165;-63
2023/11/03 07:04:01;;;;;;;4.23;2.33;;;9.00;99.90;;;;;;5073349;28;20420;-64
2023/11/03 07:06:27;;;;;;;3.60;2.03;;;9.10;99.90;;;;;;5060685;28;20210;-64
2023/11/03 07:08:52;;;;;;;4.13;1.80;;;9.10;99.90;;;;;;5053258;28;20181;-64
2023/11/03 07:11:19;;;;;;;1.90;1.70;;;9.00;99.90;;;;;;5053143;28;20416;-64
2023/11/03 07:13:45;;;;;;;4.53;2.33;;;9.10;99.90;;;;;;5067861;28;20220;-64
2023/11/03 07:16:13;;;;;;;4.10;2.27;;;9.10;99.90;;;;;;5072884;28;20526;-64
2023/11/03 07:18:40;;;;;;;4.33;2.10;;;9.20;99.90;;;;;;5073116;28;20494;-64
2023/11/03 07:21:12;;;;;;;7.93;2.13;;;9.20;99.90;;;;;;5072940;28;20412;-62
2023/11/03 07:23:38;;;;;;;3.63;2.07;;;9.20;99.90;;;;;;5052460;28;20466;-64
2023/11/03 07:26:04;;;;;;;7.93;2.47;;;9.30;99.90;;;;;;5053268;28;20939;-63
2023/11/03 07:28:30;;;;;;;6.00;2.23;;;9.20;99.90;;;;;;5054595;28;20487;-63
2023/11/03 07:30:56;;;;;;;3.67;2.33;;;9.30;99.90;;;;;;5073187;28;20210;-64
2023/11/03 07:33:21;;;;;;;4.03;2.00;;;9.30;99.90;;;;;;5072685;28;20551;-64
2023/11/03 07:35:47;;;;;;;3.60;2.40;;;9.30;99.90;;;;;;5072626;28;20515;-64
2023/11/03 07:38:13;;;;;;;3.77;1.87;;;9.40;99.90;;;;;;5060605;28;20187;-64
2023/11/03 07:40:39;;;;;;;7.63;2.30;;;9.40;99.90;;;;;;5052437;28;20478;-64
2023/11/03 07:43:08;;;;;;;6.30;2.93;;;9.50;99.90;;;;;;5052479;28;20504;-65
2023/11/03 07:45:34;;;;;;;6.30;2.50;;;9.50;99.90;;;;;;5051366;28;20433;-65
2023/11/03 07:48:01;;;;;;;4.30;2.00;;;9.50;99.90;;;;;;5052527;28;20425;-65
2023/11/03 07:50:26;;;;;;;7.47;1.77;;;9.60;99.90;;;;;;5068306;28;20424;-64
2023/11/03 07:52:52;;;;;;;10.00;3.80;;;9.70;99.90;;;;;;5072460;28;20416;-63
2023/11/03 07:55:18;;;;;;;5.33;1.60;;;9.60;99.90;;;;;;5053398;28;20565;-63
2023/11/03 07:57:44;;;;;;;7.57;1.90;;;9.70;99.90;;;;;;5052695;28;20420;-65
2023/11/03 08:00:10;;;;;;;4.33;1.87;;;9.70;99.90;;;;;;5052847;28;20178;-65
2023/11/03 08:02:39;;;;;;;9.43;2.73;;;9.70;99.90;;;;;;5053611;28;20163;-65
2023/11/03 08:05:09;;;;;;;4.80;1.80;;;9.80;99.90;;;;;;5052101;28;20810;-65
2023/11/03 08:07:35;;;;;;;2.53;1.80;;;9.80;99.90;;;;;;5044598;28;20438;-65
2023/11/03 08:10:03;;;;;;;4.80;2.33;;;9.80;99.90;;;;;;5050802;28;20437;-63
2023/11/03 08:12:33;;;;;;;2.33;1.80;;;9.90;99.90;;;;;;5052156;28;20421;-63
2023/11/03 08:15:00;;;;;;;3.60;1.80;;;9.90;99.90;;;;;;5058389;28;20452;-61
2023/11/03 08:17:25;;;;;;;5.43;2.00;;;9.90;99.90;;;;;;5071371;28;20486;-63
2023/11/03 08:19:51;;;;;;;7.17;2.10;;;9.90;99.90;;;;;;5066088;28;20417;-63
2023/11/03 08:22:17;;;;;;;8.67;1.67;;;9.90;99.90;;;;;;5050588;28;20659;-63
2023/11/03 08:24:43;;;;;;;2.57;1.70;;;9.80;99.90;;;;;;5050031;28;20266;-64
2023/11/03 08:27:09;;;;;;;5.13;1.93;;;9.90;99.90;;;;;;5051830;28;20463;-65
2023/11/03 08:29:36;;;;;;;3.70;2.10;;;9.90;99.90;;;;;;5061586;28;20587;-64
2023/11/03 08:32:02;;;;;;;3.60;2.00;;;10.00;99.90;;;;;;5065360;28;20205;-64
2023/11/03 08:34:29;;;;;;;2.50;1.77;;;10.00;99.90;;;;;;5051923;28;20543;-64
2023/11/03 08:36:54;;;;;;;1.87;1.50;;;10.00;99.90;;;;;;5051725;28;20433;-64
2023/11/03 08:39:20;;;;;;;3.00;1.60;;;10.10;99.90;;;;;;5051772;28;20401;-64
2023/11/03 08:41:46;;;;;;;4.60;1.60;;;10.20;99.90;;;;;;5047408;28;20179;-64
2023/11/03 08:44:14;;;;;;;4.73;2.00;;;10.30;99.90;;;;;;5048231;28;20471;-65
2023/11/03 08:46:40;;;;;;;5.07;1.87;;;10.50;99.90;;;;;;5051218;28;20547;-64
2023/11/03 08:49:05;;;;;;;3.93;2.30;;;10.50;99.90;;;;;;5051830;28;20427;-65
2023/11/03 08:51:31;;;;;;;3.57;1.37;;;10.50;99.90;;;;;;5059462;28;20182;-66
2023/11/03 08:53:57;;;;;;;5.80;1.83;;;10.60;99.90;;;;;;5047226;28;20234;-64
2023/11/03 08:56:22;;;;;;;5.57;2.33;;;10.60;99.90;;;;;;5051121;28;20191;-64
2023/11/03 08:58:48;;;;;;;3.20;2.07;;;10.80;99.90;;;;;;5051856;28;20173;-63
2023/11/03 09:01:14;;;;;;;7.80;2.73;;;10.70;99.90;;;;;;5050163;28;20199;-64
2023/11/03 09:03:40;;;;;;;4.27;1.80;;;10.80;99.90;;;;;;5071549;28;20178;-65
2023/11/03 09:06:07;;;;;;;4.13;3.70;;;10.80;99.90;;;;;;5071227;28;20499;-64
2023/11/03 09:08:33;;;;;;;6.00;1.93;;;10.90;99.90;;;;;;5063106;28;20446;-65
2023/11/03 09:10:59;;;;;;;3.23;2.10;;;10.90;99.90;;;;;;5051292;28;20766;-65
2023/11/03 09:13:26;;;;;;;4.13;1.63;;;11.00;99.90;;;;;;5051138;28;20199;-65
2023/11/03 09:15:52;;;;;;;3.70;1.70;;;11.00;99.90;;;;;;5051174;28;20459;-64
2023/11/03 09:18:18;;;;;;;2.23;1.33;;;10.90;99.90;;;;;;5051424;28;20486;-64
2023/11/03 09:20:44;;;;;;;3.53;1.80;;;11.10;99.90;;;;;;5051577;28;20501;-63
2023/11/03 09:23:11;;;;;;;3.73;2.03;;;10.90;99.90;;;;;;5051505;28;20501;-64
2023/11/03 09:25:37;;;;;;;6.30;1.80;;;11.10;99.90;;;;;;5048666;28;20449;-64
2023/11/03 09:28:03;;;;;;;7.23;3.97;;;11.10;99.90;;;;;;5049706;28;20413;-65
2023/11/03 09:30:29;;;;;;;5.13;2.47;;;11.10;99.90;;;;;;5068700;28;20420;-63
2023/11/03 09:32:54;;;;;;;3.50;1.87;;;11.20;99.90;;;;;;5071316;28;20446;-63
2023/11/03 09:35:20;;;;;;;4.07;2.47;;;11.20;99.90;;;;;;5071277;28;20174;-64
2023/11/03 09:37:46;;;;;;;4.73;2.80;;;11.20;99.90;;;;;;5071593;28;20518;-63
2023/11/03 09:40:17;;;;;;;4.60;2.63;;;11.30;99.90;;;;;;5071545;28;20504;-63
2023/11/03 09:42:43;;;;;;;4.50;2.33;;;11.20;99.90;;;;;;5051683;28;20167;-63
2023/11/03 09:45:12;;;;;;;4.87;2.37;;;11.20;99.90;;;;;;5051184;28;20417;-63
2023/11/03 09:47:38;;;;;;;4.00;1.70;;;11.40;99.90;;;;;;5051421;28;20406;-64
2023/11/03 09:50:07;;;;;;;4.00;2.37;;;11.30;99.90;;;;;;5033243;28;20417;-64
2023/11/03 09:52:44;;;;;;;1.80;1.50;;;11.40;99.90;;;;;;5049016;28;21083;-64
2023/11/03 09:55:15;;;;;;;4.33;1.90;;;11.40;99.90;;;;;;5051256;28;20472;-64
2023/11/03 09:57:41;;;;;;;3.53;1.40;;;11.30;99.90;;;;;;5041065;28;20942;-64
2023/11/03 10:00:16;;;;;;;4.60;1.63;;;11.40;99.90;;;;;;5071130;28;20475;-64
2023/11/03 10:02:47;;;;;;;4.13;1.80;;;11.40;99.90;;;;;;5053561;28;20821;-64
2023/11/03 10:05:16;;;;;;;9.53;2.03;;;11.30;99.90;;;;;;5050615;28;20492;-64
2023/11/03 10:08:02;;;;;;;4.50;1.83;;;11.40;99.90;;;;;;5050867;28;20459;-64
2023/11/03 10:10:29;;;;;;;4.03;2.00;;;11.40;99.90;;;;;;5053268;28;20429;-65
2023/11/03 10:12:57;;;;;;;5.70;2.87;;;11.20;99.90;;;;;;5042136;28;20433;-62
2023/11/03 10:15:24;;;;;;;6.93;1.57;;;11.30;99.90;;;;;;5016283;28;20421;-64
2023/11/03 10:17:50;;;;;;;4.40;1.80;;;11.30;99.90;;;;;;5042773;28;20520;-64
2023/11/03 10:20:20;;;;;;;2.90;1.20;;;11.20;99.90;;;;;;5047559;28;21013;-66
2023/11/03 10:22:49;;;;;;;5.33;1.83;;;11.20;99.90;;;;;;5044861;28;20291;-64
2023/11/03 10:25:15;;;;;;;5.27;1.63;;;11.20;99.90;;;;;;5043825;28;20861;-64
2023/11/03 10:27:41;;;;;;;4.10;2.10;;;11.10;99.90;;;;;;5040018;28;20449;-64
2023/11/03 10:30:09;;;;;;;4.37;1.60;;;11.30;99.90;;;;;;5039998;28;20737;-63
2023/11/03 10:32:35;;;;;;;3.50;2.20;;;11.20;99.90;;;;;;5043476;28;20178;-63
2023/11/03 10:35:07;;;;;;;3.33;1.70;;;11.20;99.90;;;;;;5038252;28;20502;-64
2023/11/03 10:37:36;;;;;;;2.97;1.70;;;11.30;99.90;;;;;;5047579;28;20525;-65
2023/11/03 10:40:06;;;;;;;2.50;2.03;;;11.40;99.90;;;;;;5049321;28;20510;-66
2023/11/03 10:42:36;;;;;;;2.40;1.17;;;11.50;99.90;;;;;;5055123;28;20480;-62
2023/11/03 10:45:05;;;;;;;3.23;1.80;;;11.50;99.90;;;;;;5066145;28;20511;-66
2023/11/03 10:47:33;;;;;;;4.57;1.37;;;11.50;99.90;;;;;;5049936;28;20534;-64
2023/11/03 10:50:05;;;;;;;6.00;2.00;;;11.60;99.90;;;;;;5052998;28;20962;-63
2023/11/03 10:52:41;;;;;;;4.33;1.90;;;11.50;99.90;;;;;;5059252;28;20548;-63
2023/11/03 10:55:14;;;;;;;1.83;1.27;;;11.40;99.90;;;;;;5053297;28;20814;-63
2023/11/03 10:57:41;;;;;;;5.60;1.70;;;11.50;99.90;;;;;;5053126;28;20428;-64
2023/11/03 11:00:20;;;;;;;3.50;1.60;;;11.40;99.90;;;;;;5045181;28;20800;-64
2023/11/03 11:02:46;;;;;;;3.83;1.93;;;11.40;99.90;;;;;;5036526;28;20429;-64
2023/11/03 11:05:15;;;;;;;2.60;1.30;;;11.40;99.90;;;;;;5047150;28;20478;-64
2023/11/03 11:07:46;;;;;;;5.07;2.00;;;11.50;99.90;;;;;;5057067;28;20182;-64
2023/11/03 11:10:13;;;;;;;6.93;1.60;;;11.40;99.90;;;;;;5065067;28;20417;-63
2023/11/03 11:13:14;;;;;;;3.37;1.50;;;11.40;99.90;;;;;;5052032;28;20437;-64
2023/11/03 11:15:43;;;;;;;2.70;1.60;;;11.40;99.90;;;;;;5044224;28;20514;-63
2023/11/03 11:18:15;;;;;;;5.20;1.60;;;11.40;99.90;;;;;;5051604;28;20459;-64
2023/11/03 11:20:50;;;;;;;2.57;1.20;;;11.40;99.90;;;;;;5072498;28;20400;-63
2023/11/03 11:23:19;;;;;;;7.00;1.70;;;11.40;99.90;;;;;;5057992;28;20405;-64
2023/11/03 11:25:47;;;;;;;2.00;1.50;;;11.50;99.90;;;;;;5042898;28;20448;-64
2023/11/03 11:28:40;;;;;;;3.17;2.50;;;11.50;99.90;;;;;;5061667;28;20929;-64
2023/11/03 11:31:24;;;;;;;4.17;3.07;;;11.60;99.90;;;;;;5050401;28;20431;-64
2023/11/03 11:34:12;;;;;;;5.97;1.60;;;11.50;99.90;;;;;;5064790;28;20464;-64
2023/11/03 11:36:39;;;;;;;3.77;1.50;;;11.50;99.90;;;;;;5046355;28;20963;-64
2023/11/03 11:39:13;;;;;;;3.60;1.97;;;11.60;99.90;;;;;;5060227;28;20409;-64
2023/11/03 11:41:44;;;;;;;5.70;1.70;;;11.60;99.90;;;;;;5059566;28;20409;-64
2023/11/03 11:44:11;;;;;;;3.90;1.80;;;11.50;99.90;;;;;;5048357;28;20445;-65
2023/11/03 11:46:40;;;;;;;4.60;2.17;;;11.60;99.90;;;;;;5052976;28;20430;-65
2023/11/03 11:49:10;;;;;;;4.30;2.13;;;11.50;99.90;;;;;;5053044;28;20467;-64
2023/11/03 11:51:36;;;;;;;4.50;1.60;;;11.50;99.90;;;;;;5052651;28;20424;-64
2023/11/03 11:54:02;;;;;;;1.77;1.60;;;11.60;99.90;;;;;;5052001;28;21038;-64
2023/11/03 11:56:29;;;;;;;3.60;1.63;;;11.70;99.90;;;;;;5052143;28;20520;-64
2023/11/03 11:58:55;;;;;;;5.43;1.93;;;11.60;99.90;;;;;;5052287;28;20456;-65
2023/11/03 12:01:23;;;;;;;4.20;2.03;;;11.50;99.90;;;;;;5052181;28;20459;-63
2023/11/03 12:03:52;;;;;;;5.40;1.80;;;11.60;99.90;;;;;;5052177;28;20413;-65
2023/11/03 12:06:18;;;;;;;7.33;2.03;;;11.60;99.90;;;;;;5052226;28;20444;-64
2023/11/03 12:08:44;;;;;;;4.87;2.60;;;11.60;99.90;;;;;;5055216;28;20531;-66
2023/11/03 12:11:09;;;;;;;6.17;1.83;;;11.70;99.90;;;;;;5071991;28;20500;-62
2023/11/03 12:13:36;;;;;;;5.63;1.93;;;11.70;99.90;;;;;;5054454;28;20394;-64
2023/11/03 12:16:02;;;;;;;7.40;2.23;;;11.70;99.90;;;;;;5056103;28;20229;-63
2023/11/03 12:18:27;;;;;;;4.73;1.80;;;11.60;99.90;;;;;;5052468;28;20409;-64
2023/11/03 12:21:03;;;;;;;2.67;1.47;;;11.60;99.90;;;;;;5052303;28;20407;-66
2023/11/03 12:23:29;;;;;;;3.20;1.50;;;11.50;99.90;;;;;;5055339;28;20184;-65
2023/11/03 12:26:01;;;;;;;4.43;2.27;;;11.50;99.90;;;;;;5071582;28;20914;-65
2023/11/03 12:28:30;;;;;;;1.83;1.67;;;11.60;99.90;;;;;;5067214;28;20779;-64
2023/11/03 12:30:59;;;;;;;2.67;2.07;;;11.50;99.90;;;;;;5050500;28;20410;-63
2023/11/03 12:33:27;;;;;;;3.43;1.83;;;11.60;99.90;;;;;;5049910;28;20481;-64
2023/11/03 12:35:54;;;;;;;2.83;1.97;;;11.60;99.90;;;;;;5065478;28;20992;-68
2023/11/03 12:38:20;;;;;;;6.40;1.77;;;11.50;99.90;;;;;;5061305;28;20425;-64
2023/11/03 12:40:47;;;;;;;3.53;2.10;;;11.60;99.90;;;;;;5051781;28;20499;-65
2023/11/03 12:43:14;;;;;;;3.67;1.73;;;11.60;99.90;;;;;;5051112;28;20776;-64
2023/11/03 12:45:40;;;;;;;1.60;1.50;;;11.60;99.90;;;;;;5061787;28;20432;-65
2023/11/03 12:48:23;;;;;;;4.90;1.97;;;11.50;99.90;;;;;;5071513;28;20496;-63